Time;durP1;ratioP1;P1;durP2;ratioP2;P2;SDS_P1;SDS_P2;PMS_P1;PMS_P2;Temp;Humidity;BMP_temperature;BMP_pressure;BME280_temperature;BME280_humidity;BME280_pressure;Samples;Min_cycle;Max_cycle;Signal;HPM_P1;HPM_P2
2021/09/14 00:01:14;;;;;;;4.07;3.67;;;16.20;93.90;;;;;;5064456;28;20021;-64
2021/09/14 00:03:39;;;;;;;6.45;4.68;;;16.20;93.90;;;;;;5064071;28;20024;-64
2021/09/14 00:06:05;;;;;;;4.97;3.33;;;16.20;94.00;;;;;;5063078;28;20052;-64
2021/09/14 00:08:30;;;;;;;6.45;3.47;;;16.10;93.90;;;;;;5062848;28;20392;-64
2021/09/14 00:10:56;;;;;;;4.20;3.53;;;16.10;94.00;;;;;;5064752;28;20389;-65
2021/09/14 00:13:21;;;;;;;3.75;3.22;;;16.10;93.90;;;;;;5065048;28;20513;-64
2021/09/14 00:15:47;;;;;;;5.28;4.05;;;16.10;94.00;;;;;;5045018;28;20031;-65
2021/09/14 00:18:12;;;;;;;5.47;4.97;;;16.10;94.00;;;;;;5060468;28;20032;-64
2021/09/14 00:20:38;;;;;;;6.85;4.70;;;16.00;94.00;;;;;;5063340;28;20025;-64
2021/09/14 00:23:04;;;;;;;5.10;3.85;;;16.00;94.10;;;;;;5063441;28;20028;-65
2021/09/14 00:25:30;;;;;;;6.32;4.13;;;16.00;94.10;;;;;;5060403;28;20033;-65
2021/09/14 00:27:56;;;;;;;5.35;4.35;;;16.00;94.10;;;;;;5061367;28;20029;-65
2021/09/14 00:30:21;;;;;;;4.53;3.67;;;15.90;94.20;;;;;;5044854;28;20082;-64
2021/09/14 00:32:47;;;;;;;7.05;4.78;;;15.90;94.20;;;;;;5064942;28;20025;-65
2021/09/14 00:35:12;;;;;;;6.10;4.13;;;15.90;94.20;;;;;;5065768;28;20033;-65
2021/09/14 00:37:38;;;;;;;6.35;4.28;;;15.80;94.30;;;;;;5068268;28;20012;-64
2021/09/14 00:40:05;;;;;;;5.95;4.28;;;15.80;94.30;;;;;;5066000;28;20023;-64
2021/09/14 00:42:31;;;;;;;7.13;4.75;;;15.80;94.40;;;;;;5062797;28;20063;-64
2021/09/14 00:44:56;;;;;;;6.57;5.03;;;15.80;94.40;;;;;;5066889;28;20088;-65
2021/09/14 00:47:22;;;;;;;7.22;5.32;;;15.80;94.50;;;;;;5044363;28;20514;-64
2021/09/14 00:49:48;;;;;;;7.57;5.90;;;15.70;94.50;;;;;;5054202;28;20358;-64
2021/09/14 00:52:13;;;;;;;6.60;4.88;;;15.70;94.60;;;;;;5051994;28;20064;-65
2021/09/14 00:54:41;;;;;;;7.93;5.15;;;15.70;94.70;;;;;;5059755;28;20091;-65
2021/09/14 00:57:07;;;;;;;6.88;5.63;;;15.60;94.80;;;;;;5045178;28;20019;-65
2021/09/14 00:59:32;;;;;;;10.70;7.18;;;15.60;94.80;;;;;;5063501;28;20391;-64
2021/09/14 01:01:58;;;;;;;7.50;5.80;;;15.50;94.90;;;;;;5063853;28;20019;-65
2021/09/14 01:04:24;;;;;;;5.90;5.28;;;15.50;94.90;;;;;;5042040;28;20036;-65
2021/09/14 01:06:50;;;;;;;7.60;5.97;;;15.50;95.00;;;;;;5062689;28;20071;-65
2021/09/14 01:09:16;;;;;;;9.75;6.15;;;15.50;95.10;;;;;;5063243;28;20012;-64
2021/09/14 01:11:42;;;;;;;7.85;6.28;;;15.50;95.10;;;;;;5060004;28;20100;-65
2021/09/14 01:14:09;;;;;;;8.27;5.80;;;15.50;95.20;;;;;;5059855;28;20067;-64
2021/09/14 01:16:37;;;;;;;7.65;5.97;;;15.40;95.20;;;;;;5064499;28;20021;-64
2021/09/14 01:19:04;;;;;;;8.30;6.18;;;15.40;95.20;;;;;;5063446;28;20492;-64
2021/09/14 01:21:31;;;;;;;8.75;6.57;;;15.40;95.20;;;;;;5063724;28;20048;-64
2021/09/14 01:23:57;;;;;;;7.40;5.82;;;15.40;95.60;;;;;;5062592;28;20025;-65
2021/09/14 01:26:23;;;;;;;7.45;5.97;;;15.30;95.40;;;;;;5065591;28;20024;-65
2021/09/14 01:28:49;;;;;;;8.63;6.55;;;15.30;95.70;;;;;;5065295;28;20100;-65
2021/09/14 01:31:15;;;;;;;7.47;6.13;;;15.30;95.50;;;;;;5060311;28;20092;-64
2021/09/14 01:33:50;;;;;;;9.07;5.82;;;15.20;95.50;;;;;;5061421;28;20469;-65
2021/09/14 01:36:17;;;;;;;9.98;5.88;;;15.20;95.60;;;;;;5067386;28;20428;-64
2021/09/14 01:38:43;;;;;;;7.60;5.82;;;15.20;95.60;;;;;;5058133;28;20481;-64
2021/09/14 01:41:09;;;;;;;7.55;5.57;;;15.20;95.60;;;;;;5060723;28;20028;-64
2021/09/14 01:43:35;;;;;;;7.20;5.82;;;15.20;95.60;;;;;;5058811;28;20398;-65
2021/09/14 01:46:02;;;;;;;7.20;5.60;;;15.20;95.70;;;;;;5062721;28;20128;-65
2021/09/14 01:48:28;;;;;;;7.78;5.70;;;15.10;95.60;;;;;;5064731;28;20385;-64
2021/09/14 01:50:54;;;;;;;8.95;6.25;;;15.10;95.70;;;;;;5056553;28;20018;-65
2021/09/14 01:53:20;;;;;;;7.82;6.22;;;15.10;95.70;;;;;;5064781;28;20024;-64
2021/09/14 01:55:46;;;;;;;8.93;6.15;;;15.10;95.80;;;;;;5061365;28;20017;-65
2021/09/14 01:58:12;;;;;;;10.00;6.65;;;15.10;95.80;;;;;;5066277;28;20494;-64
2021/09/14 02:00:42;;;;;;;9.35;6.38;;;15.10;95.90;;;;;;5067218;28;20047;-65
2021/09/14 02:03:25;;;;;;;8.07;6.65;;;15.00;95.90;;;;;;5051980;28;20022;-64
2021/09/14 02:39:10;;;;;;;10.70;7.95;;;14.60;97.30;;;;;;5065329;28;20087;-64
2021/09/14 03:00:07;;;;;;;8.45;7.55;;;14.60;97.40;;;;;;5069926;28;20075;-64
2021/09/14 03:02:34;;;;;;;9.88;7.60;;;14.70;97.50;;;;;;5067235;28;20438;-64
2021/09/14 03:05:00;;;;;;;10.00;7.75;;;14.70;97.50;;;;;;5059165;28;20078;-64
2021/09/14 03:07:25;;;;;;;11.15;8.85;;;14.70;97.50;;;;;;5070033;28;20028;-64
2021/09/14 03:09:51;;;;;;;12.32;9.40;;;14.60;97.60;;;;;;5063466;28;20044;-64
2021/09/14 03:12:16;;;;;;;12.02;9.50;;;14.60;97.70;;;;;;5066102;28;20094;-64
2021/09/14 03:14:44;;;;;;;13.43;9.88;;;14.60;97.80;;;;;;5062052;28;20403;-64
2021/09/14 03:17:09;;;;;;;11.10;8.95;;;14.60;97.90;;;;;;5058874;28;20104;-64
2021/09/14 03:19:35;;;;;;;11.75;8.98;;;14.60;98.00;;;;;;5064866;28;20096;-64
2021/09/14 03:22:00;;;;;;;13.40;9.80;;;14.60;98.10;;;;;;5064217;28;20025;-64
2021/09/14 03:24:26;;;;;;;12.15;8.15;;;14.60;98.20;;;;;;5065412;28;20064;-64
2021/09/14 03:26:52;;;;;;;11.10;8.75;;;14.50;98.20;;;;;;5063398;28;20025;-64
2021/09/14 03:29:19;;;;;;;10.02;8.13;;;14.50;98.20;;;;;;5052791;28;20029;-64
2021/09/14 03:31:44;;;;;;;12.60;9.18;;;14.50;98.30;;;;;;5063177;28;20029;-64
2021/09/14 03:34:10;;;;;;;9.98;8.82;;;14.50;98.30;;;;;;5062984;28;20472;-64
2021/09/14 03:36:35;;;;;;;12.98;8.80;;;14.50;98.40;;;;;;5063615;28;20029;-64
2021/09/14 03:39:01;;;;;;;8.85;7.40;;;14.50;98.40;;;;;;5069369;28;20020;-64
2021/09/14 03:41:26;;;;;;;12.23;9.38;;;14.50;98.30;;;;;;5047474;28;20123;-64
2021/09/14 03:43:52;;;;;;;12.05;9.80;;;14.50;98.40;;;;;;5062359;28;20025;-64
2021/09/14 03:46:17;;;;;;;11.77;9.27;;;14.50;98.40;;;;;;5062861;28;20730;-64
2021/09/14 03:48:42;;;;;;;10.90;8.52;;;14.40;98.50;;;;;;5069630;28;20020;-64
2021/09/14 03:51:08;;;;;;;14.23;10.10;;;14.40;98.50;;;;;;5066304;28;20082;-64
2021/09/14 03:53:33;;;;;;;11.93;9.35;;;14.40;98.60;;;;;;5060906;28;20021;-64
2021/09/14 03:55:59;;;;;;;11.00;9.07;;;14.40;98.60;;;;;;5064641;28;20020;-64
2021/09/14 03:58:25;;;;;;;12.65;9.65;;;14.30;98.60;;;;;;5062146;28;20361;-64
2021/09/14 04:00:52;;;;;;;12.85;11.38;;;14.30;98.70;;;;;;5062103;28;20123;-64
2021/09/14 04:03:24;;;;;;;13.98;11.07;;;14.30;98.80;;;;;;5063902;28;20465;-64
2021/09/14 04:08:50;;;;;;;15.10;11.80;;;14.20;99.10;;;;;;5064163;28;20028;-64
2021/09/14 04:11:16;;;;;;;15.48;11.68;;;14.20;99.20;;;;;;5064324;28;20041;-64
2021/09/14 04:13:41;;;;;;;17.15;12.55;;;14.20;99.40;;;;;;5060463;28;20052;-64
2021/09/14 04:16:07;;;;;;;14.65;11.10;;;14.20;99.40;;;;;;5066090;28;20024;-64
2021/09/14 04:18:32;;;;;;;16.30;12.02;;;14.10;99.40;;;;;;5046912;28;20059;-64
2021/09/14 04:20:58;;;;;;;15.57;11.93;;;14.10;99.50;;;;;;5033598;28;20112;-64
2021/09/14 04:23:23;;;;;;;14.52;11.77;;;14.10;99.50;;;;;;5061408;28;20028;-64
2021/09/14 04:25:49;;;;;;;13.10;10.18;;;14.10;99.60;;;;;;5063000;28;20032;-64
2021/09/14 04:28:15;;;;;;;17.63;12.20;;;14.00;99.60;;;;;;5058266;28;20523;-64
2021/09/14 04:30:40;;;;;;;18.33;12.40;;;14.00;99.60;;;;;;5058962;28;20048;-64
2021/09/14 04:33:06;;;;;;;15.32;11.60;;;14.00;99.70;;;;;;5069504;28;20031;-64
2021/09/14 04:35:31;;;;;;;16.63;12.23;;;14.00;99.70;;;;;;5066548;28;20017;-64
2021/09/14 04:37:57;;;;;;;13.60;10.30;;;14.00;99.70;;;;;;5069332;28;20024;-64
2021/09/14 04:40:23;;;;;;;16.60;12.05;;;14.00;99.80;;;;;;5044898;28;20024;-64
2021/09/14 04:42:48;;;;;;;14.90;10.82;;;14.00;99.80;;;;;;5056400;28;20506;-64
2021/09/14 04:45:14;;;;;;;12.77;10.50;;;14.00;99.80;;;;;;5058443;28;20049;-64
2021/09/14 04:47:40;;;;;;;14.05;10.50;;;13.90;99.80;;;;;;5066938;28;20020;-64
2021/09/14 04:50:06;;;;;;;13.15;9.73;;;13.90;99.80;;;;;;5064710;28;20035;-64
2021/09/14 04:52:32;;;;;;;13.45;10.57;;;13.90;99.70;;;;;;5067043;28;20017;-64
2021/09/14 04:54:58;;;;;;;12.40;8.85;;;13.90;99.70;;;;;;5062982;28;20082;-64
2021/09/14 04:57:37;;;;;;;;;;;;;;;;;;;;;
2021/09/14 05:00:05;;;;;;;10.35;8.55;;;13.90;99.70;;;;;;5065858;28;20016;-64
2021/09/14 05:02:30;;;;;;;13.05;10.43;;;13.90;99.70;;;;;;5058435;28;20043;-64
2021/09/14 05:04:57;;;;;;;13.20;9.85;;;13.90;99.60;;;;;;5064872;28;20024;-64
2021/09/14 05:07:23;;;;;;;13.57;9.77;;;13.90;99.60;;;;;;5063422;28;20032;-64
2021/09/14 05:09:48;;;;;;;12.73;10.82;;;13.90;99.60;;;;;;5065523;28;20037;-64
2021/09/14 05:12:14;;;;;;;11.02;9.63;;;13.90;99.60;;;;;;5042050;28;20021;-64
2021/09/14 05:14:39;;;;;;;13.25;9.75;;;13.90;99.60;;;;;;5058756;28;20396;-64
2021/09/14 05:17:05;;;;;;;13.20;10.93;;;13.90;99.60;;;;;;5041826;28;20024;-64
2021/09/14 05:19:35;;;;;;;11.85;9.35;;;13.90;99.60;;;;;;5036482;28;20021;-64
2021/09/14 05:22:01;;;;;;;;;;;13.90;99.60;;;;;;5067905;28;20028;-64
2021/09/14 05:24:28;;;;;;;12.23;9.93;;;13.80;99.60;;;;;;5040214;28;20419;-64
2021/09/14 05:26:55;;;;;;;12.25;9.40;;;13.70;99.70;;;;;;5063382;28;20035;-64
2021/09/14 05:29:21;;;;;;;15.93;10.52;;;13.80;99.70;;;;;;5069114;28;20024;-64
2021/09/14 05:31:46;;;;;;;14.32;10.18;;;13.80;99.60;;;;;;5065680;28;20063;-64
2021/09/14 05:34:13;;;;;;;13.38;9.40;;;13.90;99.60;;;;;;5068605;28;20040;-64
2021/09/14 05:36:40;;;;;;;12.57;8.98;;;13.80;99.60;;;;;;5055502;28;20052;-64
2021/09/14 05:39:05;;;;;;;14.75;10.73;;;13.90;99.60;;;;;;5055938;28;20024;-64
2021/09/14 05:41:31;;;;;;;14.23;11.07;;;13.90;99.50;;;;;;5056157;28;20025;-64
2021/09/14 05:43:57;;;;;;;15.82;11.88;;;14.00;99.60;;;;;;5055933;28;20029;-64
2021/09/14 05:46:22;;;;;;;14.00;11.43;;;13.90;99.50;;;;;;5055808;28;20099;-64
2021/09/14 05:48:48;;;;;;;14.68;10.88;;;14.00;99.60;;;;;;5038215;28;20483;-64
2021/09/14 05:51:13;;;;;;;14.65;11.48;;;14.00;99.60;;;;;;5055617;28;20071;-64
2021/09/14 05:53:39;;;;;;;15.25;11.80;;;14.00;99.60;;;;;;5054449;28;20074;-64
2021/09/14 05:56:05;;;;;;;15.98;13.07;;;14.00;99.60;;;;;;5057967;28;20036;-64
2021/09/14 05:58:31;;;;;;;15.68;11.38;;;14.00;99.70;;;;;;5074670;28;20033;-64
2021/09/14 06:00:59;;;;;;;17.55;13.85;;;14.00;99.70;;;;;;5057012;28;20078;-64
2021/09/14 06:03:27;;;;;;;16.58;11.88;;;14.00;99.70;;;;;;5075517;28;20028;-64
2021/09/14 06:05:53;;;;;;;14.32;11.75;;;14.00;99.80;;;;;;5063347;28;20029;-64
2021/09/14 06:08:18;;;;;;;17.27;11.68;;;14.10;99.80;;;;;;5055198;28;20021;-64
2021/09/14 06:10:44;;;;;;;16.98;12.18;;;14.10;99.80;;;;;;5055605;28;20056;-64
2021/09/14 06:13:10;;;;;;;15.98;12.98;;;14.20;99.80;;;;;;5064423;28;20503;-65
2021/09/14 06:15:36;;;;;;;17.13;13.05;;;14.20;99.90;;;;;;5065269;28;20032;-64
2021/09/14 06:18:01;;;;;;;17.95;13.82;;;14.20;99.90;;;;;;5055421;28;20025;-64
2021/09/14 06:20:27;;;;;;;16.65;13.18;;;14.20;99.90;;;;;;5055407;28;20432;-64
2021/09/14 06:22:52;;;;;;;17.05;14.02;;;14.20;99.90;;;;;;5055238;28;20032;-64
2021/09/14 06:25:18;;;;;;;17.73;13.70;;;14.20;99.90;;;;;;5037188;28;20469;-64
2021/09/14 06:27:43;;;;;;;16.98;14.40;;;14.30;99.90;;;;;;5055005;28;20033;-64
2021/09/14 06:30:10;;;;;;;16.35;13.45;;;14.30;99.90;;;;;;5055206;28;20075;-64
2021/09/14 06:32:36;;;;;;;17.77;14.18;;;14.30;99.90;;;;;;5068960;28;20032;-64
2021/09/14 06:35:01;;;;;;;16.05;13.70;;;14.40;99.90;;;;;;5074780;28;20019;-64
2021/09/14 06:37:27;;;;;;;20.73;16.08;;;14.40;99.90;;;;;;5061737;28;20044;-67
2021/09/14 06:39:52;;;;;;;18.27;13.40;;;14.40;99.90;;;;;;5055300;28;20037;-67
2021/09/14 06:42:18;;;;;;;15.35;13.27;;;14.40;99.90;;;;;;5068454;28;20472;-65
2021/09/14 06:44:43;;;;;;;17.70;13.35;;;14.40;99.90;;;;;;5070660;28;20048;-65
2021/09/14 06:47:09;;;;;;;19.60;15.82;;;14.50;99.90;;;;;;5074368;28;20075;-65
2021/09/14 06:49:36;;;;;;;16.85;14.00;;;14.50;99.90;;;;;;5067508;28;20492;-65
2021/09/14 06:52:01;;;;;;;18.38;15.15;;;14.60;99.90;;;;;;5073112;28;20023;-65
2021/09/14 06:54:27;;;;;;;16.27;13.82;;;14.60;99.90;;;;;;5071891;28;20107;-65
2021/09/14 06:56:52;;;;;;;17.23;13.15;;;14.60;99.90;;;;;;5070620;28;20102;-65
2021/09/14 06:59:18;;;;;;;16.95;12.80;;;14.70;99.90;;;;;;5071403;28;20021;-65
2021/09/14 07:01:44;;;;;;;17.55;13.68;;;14.70;99.90;;;;;;5074149;28;20028;-65
2021/09/14 07:04:10;;;;;;;15.50;12.93;;;14.80;99.90;;;;;;5071223;28;20024;-65
2021/09/14 07:06:36;;;;;;;16.02;14.32;;;14.80;99.90;;;;;;5073777;28;20081;-65
2021/09/14 07:09:01;;;;;;;19.13;14.93;;;14.80;99.90;;;;;;5074521;28;20051;-65
2021/09/14 07:11:27;;;;;;;20.73;16.23;;;14.90;99.90;;;;;;5059703;28;20055;-66
2021/09/14 07:13:52;;;;;;;18.77;15.60;;;14.90;99.90;;;;;;5035177;28;20756;-65
2021/09/14 07:16:18;;;;;;;22.10;17.05;;;15.00;99.90;;;;;;5055569;28;20040;-65
2021/09/14 07:18:44;;;;;;;19.55;15.35;;;15.00;99.90;;;;;;5036618;28;20112;-65
2021/09/14 07:21:10;;;;;;;18.83;15.48;;;15.00;99.90;;;;;;5054115;28;20061;-65
2021/09/14 07:23:35;;;;;;;20.17;16.50;;;15.10;99.90;;;;;;5053847;28;20025;-66
2021/09/14 07:26:01;;;;;;;22.75;17.52;;;15.10;99.90;;;;;;5059451;28;20520;-65
2021/09/14 07:28:27;;;;;;;22.45;16.95;;;15.10;99.90;;;;;;5053815;28;20020;-65
2021/09/14 07:30:52;;;;;;;20.80;15.60;;;15.20;99.90;;;;;;5053986;28;20029;-65
2021/09/14 07:33:18;;;;;;;20.63;16.15;;;15.20;99.90;;;;;;5036069;28;20090;-65
2021/09/14 07:35:44;;;;;;;18.80;15.02;;;15.30;99.90;;;;;;5053957;28;20036;-65
2021/09/14 07:38:13;;;;;;;19.20;15.88;;;15.30;99.90;;;;;;5035807;28;20032;-64
2021/09/14 07:40:38;;;;;;;18.20;15.88;;;15.40;99.90;;;;;;5053642;28;20028;-65
2021/09/14 07:43:05;;;;;;;19.35;15.70;;;15.40;99.90;;;;;;5053858;28;20033;-64
2021/09/14 07:45:31;;;;;;;18.42;15.20;;;15.40;99.90;;;;;;5041123;28;20049;-65
2021/09/14 07:47:56;;;;;;;18.35;15.88;;;15.50;99.90;;;;;;5029791;28;20388;-65
2021/09/14 07:50:23;;;;;;;18.77;15.30;;;15.60;99.90;;;;;;5035163;28;20029;-65
2021/09/14 07:52:49;;;;;;;18.63;15.35;;;15.60;99.80;;;;;;5030390;28;20024;-65
2021/09/14 07:55:14;;;;;;;13.73;12.27;;;15.70;99.90;;;;;;5052556;28;20021;-65
2021/09/14 07:57:40;;;;;;;17.02;14.98;;;15.70;99.80;;;;;;5052241;28;20480;-65
2021/09/14 08:00:06;;;;;;;17.42;13.77;;;15.80;99.70;;;;;;5047540;28;20071;-65
2021/09/14 08:02:32;;;;;;;18.75;15.25;;;15.80;99.60;;;;;;5042766;28;20021;-65
2021/09/14 08:04:57;;;;;;;18.13;15.00;;;15.90;99.60;;;;;;5033402;28;20056;-65
2021/09/14 08:07:23;;;;;;;19.67;15.85;;;16.00;99.50;;;;;;5033291;28;20105;-65
2021/09/14 08:09:48;;;;;;;18.92;16.92;;;16.10;99.50;;;;;;5032995;28;20111;-65
2021/09/14 08:12:14;;;;;;;17.88;15.57;;;16.10;99.50;;;;;;5033055;28;20025;-65
2021/09/14 08:14:40;;;;;;;19.52;15.75;;;16.20;99.40;;;;;;5015469;28;20049;-65
2021/09/14 08:17:05;;;;;;;20.63;15.77;;;16.30;99.30;;;;;;5033211;28;20048;-65
2021/09/14 08:19:31;;;;;;;18.83;14.90;;;16.40;99.20;;;;;;5033149;28;20021;-65
2021/09/14 08:21:58;;;;;;;17.08;14.57;;;16.50;99.10;;;;;;5033156;28;20033;-65
2021/09/14 08:24:24;;;;;;;16.63;14.25;;;16.60;98.90;;;;;;5033001;28;20033;-65
2021/09/14 08:26:53;;;;;;;14.50;12.52;;;16.70;98.80;;;;;;5033315;28;20045;-65
2021/09/14 08:29:18;;;;;;;18.30;15.83;;;17.00;98.70;;;;;;5015378;28;20041;-65
2021/09/14 08:31:44;;;;;;;15.95;13.20;;;17.20;98.40;;;;;;5033127;28;20025;-65
2021/09/14 08:34:09;;;;;;;16.83;14.50;;;17.40;98.20;;;;;;5032827;28;20596;-65
2021/09/14 08:36:36;;;;;;;19.30;14.45;;;17.60;97.90;;;;;;5032761;28;20548;-65
2021/09/14 08:39:03;;;;;;;17.73;13.68;;;17.80;97.70;;;;;;5032745;28;20093;-65
2021/09/14 08:41:28;;;;;;;15.98;12.90;;;17.90;97.50;;;;;;5032706;28;20025;-65
2021/09/14 08:43:54;;;;;;;15.73;12.73;;;18.10;97.30;;;;;;5014961;28;20033;-65
2021/09/14 08:46:23;;;;;;;16.02;14.18;;;18.20;97.10;;;;;;5032657;28;20111;-65
2021/09/14 08:48:50;;;;;;;15.65;12.43;;;18.20;96.80;;;;;;5047675;28;20027;-65
2021/09/14 08:51:17;;;;;;;13.68;11.68;;;18.30;97.00;;;;;;5019839;28;20397;-65
2021/09/14 08:53:42;;;;;;;12.57;11.15;;;18.30;96.70;;;;;;5032355;28;20057;-64
2021/09/14 08:56:09;;;;;;;13.45;10.98;;;18.40;96.60;;;;;;5035128;28;20494;-65
2021/09/14 08:58:35;;;;;;;13.23;11.18;;;18.50;96.50;;;;;;5043782;28;20097;-65
2021/09/14 09:01:01;;;;;;;14.43;10.45;;;18.60;96.30;;;;;;5032535;28;20108;-64
2021/09/14 09:03:29;;;;;;;13.80;11.68;;;18.80;96.30;;;;;;5032532;28;20112;-64
2021/09/14 09:05:57;;;;;;;12.10;10.73;;;18.90;96.00;;;;;;5032432;28;20485;-64
2021/09/14 09:08:28;;;;;;;12.45;11.15;;;18.90;95.80;;;;;;5013879;28;20041;-64
2021/09/14 09:11:10;;;;;;;14.00;11.93;;;19.10;95.70;;;;;;5032404;28;20036;-65
2021/09/14 09:13:44;;;;;;;10.85;9.18;;;19.10;95.50;;;;;;5032277;28;20032;-65
2021/09/14 09:16:21;;;;;;;12.05;10.68;;;19.20;95.40;;;;;;5031993;28;20052;-65
2021/09/14 09:19:01;;;;;;;11.23;9.45;;;19.40;95.20;;;;;;5023768;28;20036;-64
2021/09/14 09:21:37;;;;;;;;;;;19.50;95.00;;;;;;5034030;28;20075;-65
2021/09/14 09:24:06;;;;;;;11.00;9.55;;;19.70;95.00;;;;;;5051642;28;19912;-64
2021/09/14 09:26:37;;;;;;;9.77;8.52;;;19.90;94.70;;;;;;5048876;28;20033;-65
2021/09/14 09:29:07;;;;;;;10.75;9.00;;;20.10;94.40;;;;;;5033600;28;20021;-65
2021/09/14 09:31:37;;;;;;;9.70;8.35;;;20.30;94.10;;;;;;5051594;28;20036;-65
2021/09/14 09:34:10;;;;;;;11.80;10.00;;;20.60;93.80;;;;;;5037625;28;20380;-65
2021/09/14 09:36:40;;;;;;;10.20;8.57;;;20.80;93.40;;;;;;5045164;28;20033;-65
2021/09/14 09:39:09;;;;;;;9.05;7.75;;;20.90;93.10;;;;;;5051611;28;20017;-65
2021/09/14 09:41:38;;;;;;;8.95;7.60;;;21.00;92.90;;;;;;5033546;28;20531;-65
2021/09/14 09:44:06;;;;;;;9.05;7.47;;;21.10;92.70;;;;;;5039464;28;20026;-65
2021/09/14 09:46:31;;;;;;;11.20;7.80;;;21.20;92.50;;;;;;5054162;28;20082;-66
2021/09/14 09:49:15;;;;;;;8.43;6.85;;;21.30;92.40;;;;;;5051263;28;20021;-65
2021/09/14 09:51:40;;;;;;;8.85;6.95;;;21.40;92.10;;;;;;5050901;28;20436;-65
2021/09/14 09:54:06;;;;;;;11.27;7.03;;;21.60;92.00;;;;;;5054284;28;20033;-65
2021/09/14 09:56:45;;;;;;;9.10;7.57;;;21.70;91.80;;;;;;5070968;28;20027;-65
2021/09/14 09:59:13;;;;;;;8.52;6.80;;;21.90;91.50;;;;;;5057897;28;20091;-64
2021/09/14 10:01:41;;;;;;;6.68;5.82;;;22.10;91.10;;;;;;5051909;28;20066;-66
2021/09/14 10:04:24;;;;;;;7.13;5.53;;;22.20;90.50;;;;;;5051615;28;20025;-66
2021/09/14 10:06:52;;;;;;;5.10;4.13;;;22.30;88.00;;;;;;5051814;28;20029;-65
2021/09/14 10:09:20;;;;;;;5.18;4.03;;;22.40;89.10;;;;;;5047553;28;20016;-66
2021/09/14 10:11:56;;;;;;;4.93;4.20;;;22.60;88.10;;;;;;5056928;28;20032;-65
2021/09/14 10:14:22;;;;;;;5.15;4.38;;;22.80;87.70;;;;;;5051665;28;20035;-65
2021/09/14 10:16:49;;;;;;;5.80;5.05;;;22.80;86.00;;;;;;5051665;28;20028;-65
2021/09/14 10:19:26;;;;;;;5.18;4.00;;;22.80;84.90;;;;;;5052089;28;20009;-65
2021/09/14 10:22:10;;;;;;;4.75;3.75;;;23.00;85.00;;;;;;5055418;28;20388;-65
2021/09/14 10:24:37;;;;;;;6.38;4.80;;;23.20;84.90;;;;;;5055233;28;20074;-65
2021/09/14 10:27:13;;;;;;;5.75;5.15;;;23.50;84.80;;;;;;5055154;28;20025;-65
2021/09/14 10:29:41;;;;;;;7.97;6.90;;;23.80;84.00;;;;;;5054851;28;20025;-65
2021/09/14 10:32:12;;;;;;;9.20;7.40;;;24.00;82.50;;;;;;5056448;28;20037;-65
2021/09/14 10:34:44;;;;;;;9.18;7.07;;;24.10;81.50;;;;;;5074422;28;20095;-65
2021/09/14 10:37:11;;;;;;;7.25;5.97;;;24.40;81.10;;;;;;5071843;28;20026;-65
2021/09/14 10:39:39;;;;;;;6.75;6.07;;;24.80;80.40;;;;;;5074264;28;20017;-65
2021/09/14 10:42:36;;;;;;;6.50;5.88;;;25.20;79.60;;;;;;5071489;28;20031;-65
2021/09/14 10:45:08;;;;;;;7.03;6.05;;;25.60;78.30;;;;;;5073538;28;20125;-65
2021/09/14 10:47:45;;;;;;;9.07;7.25;;;25.90;76.90;;;;;;5074321;28;20468;-65
2021/09/14 10:50:24;;;;;;;7.13;6.38;;;26.30;75.50;;;;;;5051510;28;20025;-65
2021/09/14 10:53:00;;;;;;;6.82;6.13;;;26.60;74.70;;;;;;5068765;28;20021;-65
2021/09/14 10:55:26;;;;;;;6.80;6.20;;;26.90;73.40;;;;;;5052184;28;20029;-65
2021/09/14 10:58:00;;;;;;;6.60;5.90;;;27.10;72.90;;;;;;5068407;28;20060;-65
2021/09/14 11:00:29;;;;;;;5.47;4.97;;;27.60;71.90;;;;;;5054399;28;20029;-66
2021/09/14 11:02:55;;;;;;;;;;;28.80;71.40;;;;;;5054638;28;20028;-65
2021/09/14 11:05:25;;;;;;;4.72;4.25;;;30.80;70.10;;;;;;5054723;28;19927;-65
2021/09/14 11:08:00;;;;;;;4.53;4.03;;;32.90;65.10;;;;;;5054262;28;20078;-65
2021/09/14 11:10:41;;;;;;;3.55;3.25;;;35.10;60.10;;;;;;5054315;28;20017;-66
2021/09/14 11:13:22;;;;;;;5.20;3.78;;;36.90;56.10;;;;;;5036135;28;20029;-66
2021/09/14 11:15:54;;;;;;;3.55;3.17;;;38.50;52.80;;;;;;5068352;28;20024;-66
2021/09/14 11:18:24;;;;;;;1.90;1.70;;;39.70;50.10;;;;;;5054572;28;20037;-65
2021/09/14 11:20:50;;;;;;;3.80;3.25;;;40.70;48.30;;;;;;5063329;28;20098;-66
2021/09/14 11:23:23;;;;;;;3.53;3.20;;;40.70;46.30;;;;;;5071390;28;20039;-66
2021/09/14 11:25:48;;;;;;;3.38;3.08;;;40.20;46.00;;;;;;5073563;28;20017;-66
2021/09/14 11:28:17;;;;;;;3.20;2.47;;;39.50;45.90;;;;;;5037136;28;20432;-66
2021/09/14 11:30:58;;;;;;;2.60;2.40;;;39.30;46.70;;;;;;5053510;28;20017;-66
2021/09/14 11:33:26;;;;;;;2.55;2.33;;;39.00;44.70;;;;;;5072594;28;20105;-66
2021/09/14 11:35:52;;;;;;;2.97;2.73;;;38.80;44.40;;;;;;5071267;28;20063;-66
2021/09/14 11:38:19;;;;;;;3.83;3.13;;;38.60;44.80;;;;;;5070738;28;20013;-66
2021/09/14 11:40:49;;;;;;;2.60;2.40;;;38.60;45.10;;;;;;5055146;28;20021;-66
2021/09/14 11:43:23;;;;;;;3.00;2.30;;;39.20;45.20;;;;;;5042416;28;20031;-66
2021/09/14 11:45:50;;;;;;;2.60;2.05;;;40.60;44.20;;;;;;5045455;28;20041;-66
2021/09/14 11:48:24;;;;;;;1.88;1.73;;;42.20;42.90;;;;;;5053484;28;20477;-66
2021/09/14 11:51:36;;;;;;;2.78;2.58;;;43.60;41.60;;;;;;5053524;28;20025;-66
2021/09/14 11:54:01;;;;;;;4.32;2.78;;;44.00;37.80;;;;;;4972442;28;20031;-66
2021/09/14 11:56:27;;;;;;;3.10;2.55;;;44.20;36.80;;;;;;5040505;28;20036;-66
2021/09/14 11:58:53;;;;;;;2.35;2.15;;;43.30;35.90;;;;;;5053595;28;20473;-66
2021/09/14 12:01:20;;;;;;;3.95;2.28;;;43.30;37.10;;;;;;5053040;28;20025;-66
2021/09/14 12:03:54;;;;;;;2.50;2.30;;;43.50;36.70;;;;;;5053365;28;20028;-66
2021/09/14 12:06:28;;;;;;;2.10;1.98;;;43.90;36.90;;;;;;5052655;28;20377;-66
2021/09/14 12:08:57;;;;;;;2.60;2.10;;;44.60;37.70;;;;;;5035090;28;20028;-66
2021/09/14 12:11:30;;;;;;;2.58;1.98;;;44.60;36.40;;;;;;5052915;28;20028;-65
2021/09/14 12:14:01;;;;;;;2.88;2.50;;;44.30;36.80;;;;;;5053139;28;20062;-66
2021/09/14 12:16:28;;;;;;;2.45;2.25;;;44.00;35.00;;;;;;5035215;28;20547;-66
2021/09/14 12:18:55;;;;;;;2.60;1.92;;;42.40;35.30;;;;;;5053105;28;20021;-65
2021/09/14 12:21:21;;;;;;;3.37;3.07;;;42.30;36.70;;;;;;5053199;28;20033;-65
2021/09/14 12:23:47;;;;;;;3.28;2.47;;;40.90;35.00;;;;;;5052957;28;20266;-66
2021/09/14 12:26:40;;;;;;;;;;;;;;;;;;;;;
2021/09/14 12:29:08;;;;;;;2.33;1.80;;;39.00;38.60;;;;;;5053175;28;20376;-65
2021/09/14 12:31:34;;;;;;;1.93;1.60;;;38.90;39.10;;;;;;5052729;28;20025;-65
2021/09/14 12:34:15;;;;;;;;;;;;;;;;;;;;;
2021/09/14 12:36:43;;;;;;;2.85;2.15;;;40.30;38.90;;;;;;5050763;28;20477;-65
2021/09/14 12:39:09;;;;;;;2.47;2.22;;;40.50;36.80;;;;;;5052037;28;20033;-65
2021/09/14 12:41:58;;;;;;;2.90;2.63;;;39.60;37.10;;;;;;5051785;28;20438;-65
2021/09/14 12:44:23;;;;;;;3.83;2.25;;;39.40;38.20;;;;;;5030644;28;20064;-65
2021/09/14 12:46:52;;;;;;;2.60;2.10;;;39.80;38.80;;;;;;5035171;28;20088;-65
2021/09/14 12:49:18;;;;;;;2.83;2.30;;;40.10;38.60;;;;;;5037652;28;20416;-65
2021/09/14 12:51:43;;;;;;;2.83;2.05;;;40.00;38.20;;;;;;5034999;28;20470;-65
2021/09/14 12:54:09;;;;;;;2.53;2.00;;;40.10;38.70;;;;;;5049809;28;20045;-65
2021/09/14 12:56:34;;;;;;;2.53;2.22;;;39.60;38.50;;;;;;5047897;28;20393;-65
2021/09/14 12:59:00;;;;;;;3.58;2.83;;;38.60;39.00;;;;;;5031672;28;20470;-65
2021/09/14 13:01:25;;;;;;;4.07;3.45;;;37.30;39.20;;;;;;5035419;28;20033;-65
2021/09/14 13:03:51;;;;;;;5.13;3.70;;;35.70;40.90;;;;;;5033754;28;20040;-65
2021/09/14 13:06:16;;;;;;;5.47;3.95;;;33.90;42.90;;;;;;5031155;28;20067;-65
2021/09/14 13:08:42;;;;;;;3.15;2.85;;;32.80;44.20;;;;;;5038057;28;20281;-64
2021/09/14 13:11:07;;;;;;;3.03;2.58;;;32.10;45.90;;;;;;5021320;28;20492;-64
2021/09/14 13:16:17;;;;;;;3.60;3.20;;;32.00;46.40;;;;;;5046199;28;20082;-64
2021/09/14 13:18:48;;;;;;;3.60;3.00;;;31.30;47.80;;;;;;5028885;28;20025;-64
2021/09/14 13:21:22;;;;;;;3.72;2.97;;;31.30;48.10;;;;;;5057391;28;20450;-65
2021/09/14 13:23:49;;;;;;;2.15;1.95;;;31.40;48.20;;;;;;5050350;28;20040;-64
2021/09/14 13:26:16;;;;;;;4.75;3.20;;;31.40;48.40;;;;;;5051487;28;20016;-64
2021/09/14 13:28:54;;;;;;;6.75;5.10;;;31.10;48.60;;;;;;5051452;28;20075;-64
2021/09/14 13:31:20;;;;;;;6.20;3.60;;;30.70;48.70;;;;;;5051977;28;20389;-64
2021/09/14 13:34:06;;;;;;;;;;;;;;;;;;;;;
2021/09/14 13:36:31;;;;;;;5.13;3.28;;;29.80;51.00;;;;;;5049506;28;20017;-64
2021/09/14 13:38:57;;;;;;;3.95;2.80;;;29.80;51.10;;;;;;5051170;28;20053;-64
2021/09/14 13:41:51;;;;;;;;;;;;;;;;;;;;;
2021/09/14 13:47:07;;;;;;;3.92;3.55;;;29.60;52.00;;;;;;5052180;28;20057;-64
2021/09/14 13:49:32;;;;;;;4.22;3.78;;;29.40;52.40;;;;;;5050768;28;20048;-64